createdAt,value
2018-12-02T00:03:32.388Z,64.59
2018-12-02T00:08:35.759Z,64.71
2018-12-02T00:13:39.091Z,65.29
2018-12-02T00:18:42.448Z,65.41
2018-12-02T00:23:45.824Z,65.31
2018-12-02T00:28:49.143Z,65.04
2018-12-02T00:33:52.466Z,65.45
2018-12-02T00:38:55.830Z,65.24
2018-12-02T00:43:59.150Z,65.39
2018-12-02T00:49:02.486Z,65.31
2018-12-02T00:54:06.556Z,66.13
2018-12-02T00:59:09.895Z,65.58
2018-12-02T01:04:13.224Z,65.90
2018-12-02T01:09:16.536Z,65.84
2018-12-02T01:14:19.914Z,65.70
2018-12-02T01:19:23.250Z,65.92
2018-12-02T01:24:26.581Z,65.85
2018-12-02T01:29:29.926Z,65.98
2018-12-02T01:34:33.263Z,65.97
2018-12-02T01:39:36.615Z,66.35
2018-12-02T01:44:39.988Z,66.07
2018-12-02T01:49:43.325Z,66.00
2018-12-02T01:54:46.645Z,66.05
2018-12-02T01:59:49.978Z,65.92
2018-12-02T02:04:53.359Z,66.20
2018-12-02T02:09:56.671Z,65.96
2018-12-02T02:15:00.004Z,66.34
2018-12-02T02:20:03.531Z,66.57
2018-12-02T02:25:08.680Z,66.09
2018-12-02T02:30:15.692Z,66.73
2018-12-02T02:35:20.104Z,66.91
2018-12-02T02:40:27.765Z,66.86
2018-12-02T02:45:31.163Z,66.77
2018-12-02T02:50:34.528Z,67.12
2018-12-02T02:55:37.867Z,66.72
2018-12-02T03:00:41.236Z,67.28
2018-12-02T03:05:44.661Z,66.97
2018-12-02T03:10:48.011Z,67.05
2018-12-02T03:15:51.352Z,67.27
2018-12-02T03:20:54.707Z,67.55
2018-12-02T03:25:58.048Z,67.82
2018-12-02T03:31:01.431Z,67.27
2018-12-02T03:36:04.867Z,66.87
2018-12-02T03:41:08.232Z,67.71
2018-12-02T03:46:11.565Z,67.73
2018-12-02T03:51:14.921Z,67.53
2018-12-02T03:56:18.288Z,67.79
2018-12-02T04:01:21.639Z,67.98
2018-12-02T04:06:25.000Z,67.59
2018-12-02T04:11:28.365Z,68.12
2018-12-02T04:16:31.714Z,67.81
2018-12-02T04:21:35.054Z,67.77
2018-12-02T04:26:38.382Z,67.92
2018-12-02T04:31:41.731Z,67.76
2018-12-02T04:36:45.102Z,68.29
2018-12-02T04:41:48.433Z,68.14
2018-12-02T04:46:51.785Z,68.05
2018-12-02T04:52:01.703Z,68.70
2018-12-02T04:57:05.212Z,68.79
2018-12-02T05:02:08.537Z,68.14
2018-12-02T05:07:11.865Z,68.32
2018-12-02T05:12:15.837Z,68.24
2018-12-02T05:17:19.243Z,68.23
2018-12-02T05:22:22.630Z,68.33
2018-12-02T05:27:26.042Z,67.10
2018-12-02T05:32:29.389Z,67.77
2018-12-02T05:37:32.830Z,67.82
2018-12-02T05:42:36.183Z,67.65
2018-12-02T05:47:39.540Z,67.67
2018-12-02T05:52:42.992Z,67.88
2018-12-02T05:57:46.345Z,67.67
2018-12-02T06:02:49.700Z,67.72
2018-12-02T06:07:53.086Z,67.89
2018-12-02T06:12:56.440Z,68.26
2018-12-02T06:17:59.959Z,68.19
2018-12-02T06:23:03.407Z,67.93
2018-12-02T06:28:06.765Z,67.60
2018-12-02T06:33:10.177Z,68.07
2018-12-02T06:38:13.617Z,67.61
2018-12-02T06:43:16.951Z,67.75
2018-12-02T06:48:21.514Z,68.17
2018-12-02T07:06:28.394Z,67.86
2018-12-02T07:11:31.980Z,67.64
2018-12-02T07:16:35.306Z,67.69
2018-12-02T07:21:38.631Z,67.90
2018-12-02T07:26:41.981Z,67.94
2018-12-02T07:31:45.344Z,67.79
2018-12-02T07:36:48.670Z,68.66
2018-12-02T07:41:51.987Z,68.10
2018-12-02T07:46:55.295Z,68.75
2018-12-02T07:51:58.634Z,53.27
2018-12-02T07:57:01.948Z,53.38
2018-12-02T08:02:05.595Z,54.13
2018-12-02T08:07:08.915Z,54.59
2018-12-02T08:12:12.216Z,55.29
2018-12-02T08:17:15.562Z,55.36
2018-12-02T08:22:18.872Z,56.57
2018-12-02T08:27:22.198Z,56.39
2018-12-02T08:32:25.531Z,55.40
2018-12-02T08:37:28.853Z,53.05
2018-12-02T08:42:32.162Z,53.00
2018-12-02T08:47:35.548Z,53.81
2018-12-02T08:52:38.860Z,55.50
2018-12-02T08:57:42.161Z,55.91
2018-12-02T09:02:46.759Z,56.37
2018-12-02T09:07:50.235Z,56.84
2018-12-02T09:12:55.098Z,57.17
2018-12-02T09:17:58.444Z,57.70
2018-12-02T09:23:01.788Z,58.02
2018-12-02T09:28:05.254Z,58.44
2018-12-02T09:33:09.094Z,58.17
2018-12-02T09:38:12.435Z,59.06
2018-12-02T09:43:15.750Z,59.34
2018-12-02T09:48:19.143Z,59.89
2018-12-02T09:53:22.460Z,59.31
2018-12-02T09:58:27.907Z,58.96
2018-12-02T10:03:31.267Z,58.57
2018-12-02T10:08:34.566Z,58.88
2018-12-02T10:13:37.990Z,59.95
2018-12-02T10:18:41.297Z,59.52
2018-12-02T10:23:44.603Z,59.74
2018-12-02T10:28:47.956Z,60.50
2018-12-02T10:33:51.295Z,60.55
2018-12-02T10:38:54.611Z,60.40
2018-12-02T10:43:57.933Z,60.70
2018-12-02T10:49:01.278Z,60.79
2018-12-02T10:54:04.630Z,61.04
2018-12-02T10:59:07.962Z,61.24
2018-12-02T11:04:11.391Z,60.79
2018-12-02T11:09:14.760Z,61.23
2018-12-02T11:14:18.094Z,61.38
2018-12-02T11:19:21.429Z,61.62
2018-12-02T11:24:24.728Z,61.30
2018-12-02T11:29:28.054Z,61.26
2018-12-02T11:34:31.365Z,62.06
2018-12-02T11:39:34.684Z,62.13
2018-12-02T11:44:38.002Z,62.94
2018-12-02T11:49:41.311Z,62.96
2018-12-02T11:54:44.631Z,63.54
2018-12-02T11:59:47.999Z,65.15
2018-12-02T12:04:51.320Z,66.10
2018-12-02T12:09:54.628Z,57.92
2018-12-02T12:14:58.047Z,59.45
2018-12-02T12:20:01.389Z,59.63
2018-12-02T12:25:05.356Z,60.67
2018-12-02T12:30:13.157Z,56.57
2018-12-02T12:35:17.478Z,57.62
2018-12-02T12:40:24.276Z,57.59
2018-12-02T12:45:27.605Z,57.33
2018-12-02T12:50:30.971Z,57.35
2018-12-02T12:55:34.323Z,58.25
2018-12-02T13:00:37.714Z,58.70
2018-12-02T13:05:41.052Z,58.68
2018-12-02T13:10:44.436Z,58.25
2018-12-02T13:15:47.798Z,58.55
2018-12-02T13:20:55.199Z,59.26
2018-12-02T13:25:58.556Z,58.22
2018-12-02T13:31:01.933Z,58.74
2018-12-02T13:36:05.554Z,58.79
2018-12-02T13:41:08.901Z,59.49
2018-12-02T13:46:12.211Z,59.39
2018-12-02T13:51:15.563Z,59.25
2018-12-02T13:56:22.963Z,59.42
2018-12-02T14:01:22.306Z,59.24
2018-12-02T14:06:32.179Z,59.62
2018-12-02T14:11:35.491Z,59.92
2018-12-02T14:16:48.093Z,60.24
2018-12-02T14:21:51.436Z,60.18
2018-12-02T14:26:54.843Z,60.32
2018-12-02T14:31:59.738Z,60.69
2018-12-02T14:37:03.096Z,60.85
2018-12-02T14:42:06.588Z,61.06
2018-12-02T14:47:10.056Z,60.86
2018-12-02T14:52:13.371Z,61.17
2018-12-02T14:57:16.699Z,61.01
2018-12-02T15:02:20.035Z,61.73
2018-12-02T15:07:23.389Z,61.51
2018-12-02T15:12:26.737Z,60.99
2018-12-02T15:17:30.094Z,61.42
2018-12-02T15:22:33.440Z,61.38
2018-12-02T15:27:36.748Z,62.00
2018-12-02T15:32:40.413Z,61.83
2018-12-02T15:37:43.766Z,61.79
2018-12-02T15:42:48.548Z,61.91
2018-12-02T15:47:51.912Z,61.88
2018-12-02T15:52:55.251Z,62.39
2018-12-02T15:57:59.416Z,62.73
2018-12-02T16:03:02.774Z,62.67
2018-12-02T16:08:07.278Z,62.73
2018-12-02T16:13:11.847Z,62.87
2018-12-02T16:18:15.699Z,62.81
2018-12-02T16:23:20.687Z,62.51
2018-12-02T16:28:24.062Z,62.31
2018-12-02T16:33:27.463Z,63.11
2018-12-02T16:38:30.812Z,62.95
2018-12-02T16:43:34.161Z,63.29
2018-12-02T16:48:37.535Z,63.03
2018-12-02T16:53:40.879Z,62.43
2018-12-02T16:59:47.619Z,63.39
2018-12-02T17:04:50.956Z,63.49
2018-12-02T17:09:54.288Z,62.31
2018-12-02T17:14:57.664Z,61.63
2018-12-02T17:20:01.001Z,61.66
2018-12-02T17:25:04.506Z,60.82
2018-12-02T17:30:18.682Z,61.25
2018-12-02T17:35:22.039Z,60.91
2018-12-02T17:40:25.395Z,61.04
2018-12-02T17:45:28.732Z,60.72
2018-12-02T17:50:32.088Z,60.67
2018-12-02T17:55:35.496Z,61.27
2018-12-02T18:00:38.852Z,61.30
2018-12-02T18:05:44.740Z,61.01
2018-12-02T18:10:48.084Z,61.21
2018-12-02T18:15:51.398Z,61.03
2018-12-02T18:20:54.821Z,61.29
2018-12-02T18:25:58.146Z,60.90
2018-12-02T18:31:01.480Z,61.56
2018-12-02T18:36:10.707Z,60.99
2018-12-02T18:41:18.037Z,61.58
2018-12-02T18:46:21.665Z,61.24
2018-12-02T18:51:25.007Z,61.50
2018-12-02T18:56:28.304Z,61.31
2018-12-02T19:01:31.641Z,61.42
2018-12-02T19:06:34.975Z,61.87
2018-12-02T19:11:38.303Z,61.64
2018-12-02T19:16:41.642Z,61.80
2018-12-02T19:21:44.972Z,62.00
2018-12-02T19:26:48.281Z,61.66
2018-12-02T19:31:51.615Z,61.64
2018-12-02T19:36:58.019Z,61.83
2018-12-02T19:42:01.327Z,61.69
2018-12-02T19:47:05.047Z,61.84
2018-12-02T19:52:08.358Z,61.67
2018-12-02T19:57:11.679Z,62.02
2018-12-02T20:02:15.021Z,61.43
2018-12-02T20:07:18.367Z,62.15
2018-12-02T20:12:21.676Z,61.16
2018-12-02T20:17:24.986Z,61.83
2018-12-02T20:22:28.323Z,62.18
2018-12-02T20:27:31.667Z,62.22
2018-12-02T20:32:35.026Z,62.19
2018-12-02T20:37:38.489Z,62.44
2018-12-02T20:42:41.846Z,61.95
2018-12-02T20:47:45.216Z,61.86
2018-12-02T20:52:49.235Z,61.91
2018-12-02T20:57:55.015Z,62.16
2018-12-02T21:03:07.995Z,62.12
2018-12-02T21:08:11.359Z,62.79
2018-12-02T21:13:14.747Z,62.35
2018-12-02T21:18:18.124Z,62.62
2018-12-02T21:23:21.467Z,62.95
2018-12-02T21:28:25.926Z,62.64
2018-12-02T21:33:29.295Z,62.78
2018-12-02T21:38:32.612Z,62.63
2018-12-02T21:43:35.988Z,62.83
2018-12-02T21:48:39.347Z,62.87
2018-12-02T21:53:42.672Z,63.13
2018-12-02T21:58:46.036Z,62.72
2018-12-02T22:03:49.394Z,62.77
2018-12-02T22:08:52.822Z,62.91
2018-12-02T22:13:56.195Z,62.73
2018-12-02T22:18:59.532Z,63.13
2018-12-02T22:24:02.859Z,63.02
2018-12-02T22:29:06.219Z,63.24
2018-12-02T22:34:09.548Z,63.17
2018-12-02T22:39:12.871Z,63.32
2018-12-02T22:44:16.262Z,63.45
2018-12-02T22:49:19.582Z,63.51
2018-12-02T22:54:22.956Z,62.77
2018-12-02T22:59:26.273Z,63.25
2018-12-02T23:04:29.621Z,63.18
2018-12-02T23:09:32.930Z,63.38
2018-12-02T23:14:36.265Z,62.91
2018-12-02T23:19:39.616Z,62.86
2018-12-02T23:24:42.972Z,62.64
2018-12-02T23:29:46.262Z,63.36
2018-12-02T23:34:49.604Z,63.12
2018-12-02T23:39:52.919Z,63.41
2018-12-02T23:44:56.270Z,63.17
2018-12-02T23:49:59.611Z,63.05
2018-12-02T23:55:02.968Z,63.30
